Nova Aurora, Brazil
Current Conditions -  °F | °C
As of 4:00 AM on Monday 24 Nov 2014 (Local Time) from SBUL Reporting Station
Broken Clouds Broken Clouds  
Wind Chill: 68°   Ceiling: 200
Heat Index: 68°   Visibility: 5mi
Dew Point: 66°   Wind: 7mph
Humidity: 94%   Direction: 350°N
Pressure: 30"   Gusts: NA
Location:  18.06°S, 48.25°W
Report Text: SBUL 240600Z 35006KT 8000 3000N BKN002 20/19 Q1016
Loading
Personal Weather Stations






























Interactive Weather Map New forecast layout! Learn more

10-Day Weather Forecast

Advertisements
Track Severe Weather on mobile